createdAt,value
2022-12-15T00:09:20.798Z,44.40
2022-12-15T00:09:30.911Z,44.00
2022-12-15T00:10:27.798Z,45.80
2022-12-15T00:15:11.639Z,42.10
2022-12-15T00:15:19.845Z,42.90
2022-12-15T00:16:20.810Z,44.60
2022-12-15T00:17:53.607Z,48.10
2022-12-15T00:21:27.637Z,41.70
2022-12-15T00:27:36.899Z,46.00
2022-12-15T00:27:42.571Z,46.10
2022-12-15T00:28:49.903Z,47.40
2022-12-15T00:29:42.913Z,43.80
2022-12-15T00:37:43.602Z,41.90
2022-12-15T00:37:48.604Z,45.40
2022-12-15T00:39:36.647Z,46.10
2022-12-15T00:41:31.597Z,49.60
2022-12-15T00:45:09.421Z,45.50
2022-12-15T00:46:03.413Z,48.00
2022-12-15T00:50:29.123Z,39.60
2022-12-15T00:51:46.619Z,45.20
2022-12-15T00:52:23.944Z,47.10
2022-12-15T00:54:22.087Z,46.60
2022-12-15T01:00:05.033Z,46.20
2022-12-15T01:00:10.087Z,49.40
2022-12-15T01:11:43.765Z,47.80
2022-12-15T01:11:48.768Z,51.10
2022-12-15T01:13:07.746Z,48.00
2022-12-15T01:13:50.043Z,50.30
2022-12-15T01:14:51.469Z,53.80
2022-12-15T01:16:02.344Z,49.20
2022-12-15T01:16:50.708Z,44.60
2022-12-15T01:19:11.906Z,45.40
2022-12-15T01:20:11.157Z,51.70
2022-12-15T01:21:08.073Z,51.60
2022-12-15T01:23:34.558Z,46.20
2022-12-15T01:24:29.744Z,47.80
2022-12-15T01:25:30.201Z,48.10
2022-12-15T01:31:06.958Z,48.40
2022-12-15T01:34:50.371Z,49.60
2022-12-15T01:35:15.187Z,52.80
2022-12-15T01:36:18.475Z,49.80
2022-12-15T01:37:31.679Z,46.60
2022-12-15T01:39:40.731Z,50.80
2022-12-15T01:40:37.676Z,53.00
2022-12-15T01:47:30.608Z,44.60
2022-12-15T01:48:32.348Z,47.80
2022-12-15T01:49:44.738Z,49.70
2022-12-15T01:50:32.344Z,45.00
2022-12-15T01:51:30.589Z,49.80
2022-12-15T01:52:32.311Z,50.40
2022-12-15T01:53:44.648Z,44.70
2022-12-15T01:56:41.197Z,46.70
2022-12-15T01:59:02.378Z,46.20
2022-12-15T02:00:28.790Z,45.40
2022-12-15T02:01:00.150Z,48.70
2022-12-15T02:02:01.499Z,45.20
2022-12-15T02:03:26.358Z,45.70
2022-12-15T07:02:04.776Z,264.90
2022-12-15T07:03:05.556Z,343.60
2022-12-15T07:04:06.175Z,50.10
2022-12-15T07:05:05.445Z,49.90
2022-12-15T07:06:05.514Z,46.00
2022-12-15T07:07:05.349Z,47.10
2022-12-15T07:08:05.495Z,46.50
2022-12-15T07:09:05.318Z,48.30
2022-12-15T07:10:05.490Z,47.60
2022-12-15T07:11:05.299Z,52.30
2022-12-15T07:12:05.547Z,43.10
2022-12-15T07:13:05.276Z,46.40
2022-12-15T07:14:05.521Z,46.10
2022-12-15T07:15:05.255Z,47.00
2022-12-15T07:16:05.510Z,49.20
2022-12-15T07:17:05.244Z,45.70
2022-12-15T07:18:05.480Z,46.30
2022-12-15T07:19:05.220Z,46.00
2022-12-15T07:20:05.296Z,44.70
2022-12-15T07:21:05.198Z,46.50
2022-12-15T07:22:06.389Z,51.50
2022-12-15T07:23:05.175Z,46.70
2022-12-15T07:24:05.687Z,45.50
2022-12-15T07:25:05.189Z,49.50
2022-12-15T07:26:09.716Z,45.00
2022-12-15T07:27:05.193Z,48.40
2022-12-15T07:28:26.411Z,46.80
2022-12-15T07:29:05.125Z,41.60
2022-12-15T07:30:05.330Z,48.70
2022-12-15T07:31:07.410Z,46.70
2022-12-15T07:32:05.186Z,43.80
2022-12-15T07:33:26.244Z,46.60
2022-12-15T07:34:05.110Z,47.20
2022-12-15T07:35:05.153Z,51.80
2022-12-15T07:36:05.167Z,46.20
2022-12-15T07:37:05.047Z,47.10
2022-12-15T07:38:05.191Z,46.80
2022-12-15T07:39:05.023Z,46.30
2022-12-15T07:40:05.244Z,48.40
2022-12-15T07:41:05.086Z,50.70
2022-12-15T07:42:05.004Z,46.10
2022-12-15T07:43:05.215Z,45.40
2022-12-15T07:44:05.012Z,45.60
2022-12-15T07:45:05.388Z,48.90
2022-12-15T07:46:05.152Z,46.90
2022-12-15T07:47:05.035Z,50.60
2022-12-15T07:48:04.942Z,43.90
2022-12-15T07:49:05.044Z,43.20
2022-12-15T07:50:04.957Z,47.30
2022-12-15T07:51:10.946Z,48.00
2022-12-15T07:52:04.937Z,49.70
2022-12-15T07:53:05.072Z,41.60
2022-12-15T07:54:04.932Z,43.40
2022-12-15T07:55:05.096Z,45.10
2022-12-15T07:56:09.693Z,47.60
2022-12-15T07:57:04.857Z,42.50
2022-12-15T07:58:05.121Z,49.20
2022-12-15T07:59:04.832Z,46.00
2022-12-15T08:00:05.032Z,43.20
2022-12-15T08:01:05.055Z,46.30
2022-12-15T08:02:05.216Z,45.10
2022-12-15T08:03:04.986Z,45.20
2022-12-15T08:04:05.025Z,48.70
2022-12-15T08:05:04.787Z,49.50
2022-12-15T08:06:04.968Z,48.80
2022-12-15T08:07:04.793Z,46.50
2022-12-15T08:08:04.983Z,45.90
2022-12-15T08:09:04.746Z,48.50
2022-12-15T08:11:15.266Z,45.10
2022-12-15T08:12:16.049Z,45.60
2022-12-15T08:13:38.153Z,42.40
2022-12-15T08:14:18.100Z,46.10
2022-12-15T08:15:15.975Z,51.30
2022-12-15T08:16:16.192Z,52.40
2022-12-15T08:17:15.975Z,49.50
2022-12-15T08:18:16.112Z,53.80
2022-12-15T08:19:15.934Z,48.80
2022-12-15T08:20:16.134Z,47.70
2022-12-15T08:21:15.921Z,46.10
2022-12-15T08:22:16.189Z,49.80
2022-12-15T08:23:15.926Z,49.30
2022-12-15T08:24:16.152Z,52.50
2022-12-15T08:25:15.890Z,49.70
2022-12-15T08:26:15.999Z,46.10
2022-12-15T08:27:16.106Z,52.70
2022-12-15T08:28:15.851Z,48.80
2022-12-15T08:30:16.095Z,51.70
2022-12-15T08:31:15.931Z,52.20
2022-12-15T08:32:16.088Z,49.80
2022-12-15T08:33:15.799Z,49.90
2022-12-15T08:34:16.032Z,55.20
2022-12-15T08:35:46.925Z,48.00
2022-12-15T08:36:15.795Z,49.20
2022-12-15T08:37:16.071Z,49.50
2022-12-15T08:38:15.773Z,49.80
2022-12-15T08:39:15.890Z,45.80
2022-12-15T08:40:15.764Z,49.20
2022-12-15T08:41:15.874Z,49.00
2022-12-15T08:42:15.957Z,46.40
2022-12-15T08:43:15.716Z,46.40
2022-12-15T08:44:15.934Z,47.80
2022-12-15T08:45:15.701Z,46.50
2022-12-15T08:46:17.082Z,45.50
2022-12-15T08:47:15.696Z,46.60
2022-12-15T08:48:16.967Z,46.80
2022-12-15T08:49:21.436Z,50.60
2022-12-15T08:50:15.647Z,52.90
2022-12-15T08:51:15.728Z,50.80
2022-12-15T08:52:15.618Z,50.10
2022-12-15T08:53:41.493Z,52.80
2022-12-15T08:54:15.790Z,51.50
2022-12-15T08:55:20.775Z,56.00
2022-12-15T08:56:15.598Z,51.90
2022-12-15T08:57:15.685Z,54.50
2022-12-15T08:58:15.568Z,47.20
2022-12-15T08:59:15.802Z,48.80
2022-12-15T09:00:15.568Z,48.30
2022-12-15T09:01:22.177Z,48.10
2022-12-15T09:02:15.597Z,48.60
2022-12-15T09:03:15.614Z,47.10
2022-12-15T09:04:15.610Z,52.30
2022-12-15T09:05:15.672Z,50.30
2022-12-15T09:06:15.485Z,48.10
2022-12-15T09:07:15.650Z,46.70
2022-12-15T09:08:15.653Z,51.70
2022-12-15T09:09:15.484Z,52.90
2022-12-15T09:10:15.572Z,47.30
2022-12-15T09:11:15.451Z,47.70
2022-12-15T09:12:15.687Z,45.60
2022-12-15T09:13:15.419Z,50.00
2022-12-15T09:14:15.702Z,46.30
2022-12-15T09:15:15.417Z,49.20
2022-12-15T09:16:16.564Z,43.20
2022-12-15T09:17:15.414Z,46.20
2022-12-15T09:18:15.534Z,45.80
2022-12-15T09:19:15.511Z,49.40
2022-12-15T09:20:17.979Z,41.40
2022-12-15T09:21:15.340Z,42.70
2022-12-15T09:22:15.583Z,45.20
2022-12-15T09:23:15.551Z,41.30
2022-12-15T09:24:23.232Z,46.30
2022-12-15T09:25:15.303Z,51.60
2022-12-15T09:26:15.576Z,47.90
2022-12-15T09:27:15.279Z,48.30
2022-12-15T09:28:15.407Z,50.10
2022-12-15T09:29:15.258Z,44.20
2022-12-15T09:30:17.548Z,47.40
2022-12-15T09:31:15.303Z,46.90
2022-12-15T09:32:15.536Z,51.70
2022-12-15T09:33:15.216Z,41.40
2022-12-15T09:34:37.545Z,48.20
2022-12-15T09:35:15.194Z,43.40
2022-12-15T09:36:17.485Z,47.40
2022-12-15T09:37:15.208Z,47.40
2022-12-15T09:38:17.537Z,50.00
2022-12-15T09:39:15.166Z,51.60
2022-12-15T09:40:15.271Z,47.70
2022-12-15T09:41:15.231Z,52.90
2022-12-15T09:42:16.307Z,58.00
2022-12-15T09:43:33.835Z,50.80
2022-12-15T09:44:15.126Z,42.50
2022-12-15T09:45:15.096Z,43.40
2022-12-15T09:46:15.473Z,49.50
2022-12-15T09:47:15.189Z,44.60
2022-12-15T09:48:15.226Z,46.00
2022-12-15T09:49:15.105Z,48.90
2022-12-15T09:50:15.230Z,48.90
2022-12-15T09:51:15.038Z,44.10
2022-12-15T09:52:15.146Z,47.90
2022-12-15T09:53:45.540Z,49.10
2022-12-15T09:54:15.031Z,51.20
2022-12-15T09:55:15.103Z,42.80
2022-12-15T09:56:15.653Z,53.40
2022-12-15T09:57:14.976Z,46.20
2022-12-15T09:58:15.181Z,54.00
2022-12-15T09:59:15.124Z,43.70
2022-12-15T10:00:15.121Z,45.50
2022-12-15T10:01:14.971Z,45.10
2022-12-15T10:02:16.340Z,46.70
2022-12-15T10:03:15.117Z,49.10
2022-12-15T10:04:15.074Z,43.70
2022-12-15T10:05:14.926Z,41.80
2022-12-15T10:06:18.379Z,47.50
2022-12-15T10:07:14.909Z,51.10
2022-12-15T10:08:15.050Z,48.60
2022-12-15T10:09:16.202Z,51.90
2022-12-15T10:10:14.862Z,52.20
2022-12-15T10:11:15.067Z,48.20
2022-12-15T10:12:14.867Z,42.70
2022-12-15T10:13:17.751Z,48.00
2022-12-15T10:14:14.849Z,45.30
2022-12-15T10:15:16.020Z,42.60
2022-12-15T10:16:15.062Z,44.10
2022-12-15T10:17:23.859Z,41.70
2022-12-15T10:18:14.778Z,44.80
2022-12-15T10:19:14.919Z,46.10
2022-12-15T10:20:14.776Z,42.20
2022-12-15T10:21:15.041Z,42.40
2022-12-15T10:22:14.751Z,41.00
2022-12-15T10:23:14.902Z,37.30
2022-12-15T10:24:14.717Z,40.30
2022-12-15T10:25:14.860Z,42.30
2022-12-15T10:26:14.751Z,37.50
2022-12-15T10:27:14.879Z,41.40
2022-12-15T10:28:14.679Z,36.60
2022-12-15T10:29:14.889Z,45.90
2022-12-15T10:30:14.694Z,40.60
2022-12-15T10:31:14.952Z,41.30
2022-12-15T10:32:14.690Z,36.60
2022-12-15T10:33:14.942Z,37.00
2022-12-15T10:34:14.700Z,33.40
2022-12-15T10:35:15.758Z,34.80
2022-12-15T10:36:14.601Z,35.20
2022-12-15T10:37:14.747Z,36.60
2022-12-15T10:38:14.578Z,34.70
2022-12-15T10:39:17.665Z,36.90
2022-12-15T10:40:14.766Z,38.60
2022-12-15T10:41:14.556Z,36.80
2022-12-15T10:42:15.810Z,37.60
2022-12-15T10:43:14.530Z,39.40
2022-12-15T10:44:14.793Z,37.10
2022-12-15T10:45:14.523Z,40.40
2022-12-15T10:46:15.191Z,44.80
2022-12-15T10:47:14.490Z,38.60
2022-12-15T10:48:14.724Z,40.50
2022-12-15T10:49:14.500Z,41.30
2022-12-15T10:50:17.225Z,40.30
2022-12-15T10:51:14.457Z,43.50
2022-12-15T10:52:14.761Z,42.40
2022-12-15T10:53:14.436Z,43.00
2022-12-15T10:54:16.352Z,42.00
2022-12-15T10:55:14.647Z,43.40
2022-12-15T10:56:14.406Z,41.10
2022-12-15T10:57:15.716Z,44.20
2022-12-15T10:58:14.391Z,45.00
2022-12-15T10:59:16.580Z,43.90
2022-12-15T11:00:14.399Z,43.90
2022-12-15T11:01:15.660Z,45.70
2022-12-15T11:02:18.081Z,45.30
2022-12-15T11:03:14.526Z,49.30
2022-12-15T11:04:14.568Z,46.50
2022-12-15T11:05:14.342Z,45.50
2022-12-15T11:06:15.563Z,47.90
2022-12-15T11:07:14.295Z,43.50
2022-12-15T11:08:14.553Z,44.70
2022-12-15T11:09:14.300Z,46.20
2022-12-15T11:10:14.574Z,46.40
2022-12-15T11:11:14.279Z,43.70
2022-12-15T11:12:14.511Z,42.40
2022-12-15T11:13:14.252Z,44.80
2022-12-15T11:14:15.521Z,46.70
2022-12-15T11:15:14.205Z,47.50
2022-12-15T11:16:14.338Z,47.80
2022-12-15T11:17:14.200Z,45.60
2022-12-15T11:18:14.319Z,45.10
2022-12-15T11:19:14.167Z,47.30
2022-12-15T11:20:14.364Z,45.80
2022-12-15T11:21:15.360Z,47.20
2022-12-15T11:22:35.336Z,47.50
2022-12-15T11:23:14.142Z,46.90
2022-12-15T11:24:14.256Z,44.80
2022-12-15T11:25:14.129Z,45.70
2022-12-15T11:26:14.401Z,50.70
2022-12-15T11:27:14.112Z,46.40
2022-12-15T11:28:14.381Z,50.50
2022-12-15T11:29:14.098Z,47.70
2022-12-15T11:30:14.194Z,44.90
2022-12-15T11:31:14.195Z,47.40
2022-12-15T11:32:14.080Z,46.70
2022-12-15T11:33:14.259Z,46.80
2022-12-15T11:34:14.030Z,44.80
2022-12-15T11:35:14.256Z,45.50
2022-12-15T11:36:14.237Z,51.30
2022-12-15T11:37:14.184Z,49.40
2022-12-15T11:38:14.293Z,50.20
2022-12-15T11:39:14.057Z,48.10
2022-12-15T11:40:14.274Z,48.00
2022-12-15T11:41:13.973Z,52.20
2022-12-15T11:42:14.108Z,46.80
2022-12-15T11:43:13.962Z,49.70
2022-12-15T11:44:14.127Z,51.50
2022-12-15T11:45:13.932Z,51.50
2022-12-15T11:46:14.097Z,49.90
2022-12-15T11:47:13.944Z,41.80
2022-12-15T11:48:15.040Z,43.70
2022-12-15T11:49:13.909Z,44.90
2022-12-15T11:50:14.030Z,42.40
2022-12-15T11:51:13.865Z,46.70
2022-12-15T11:52:22.869Z,44.90
2022-12-15T11:53:15.467Z,45.40
2022-12-15T11:54:18.516Z,46.50
2022-12-15T11:55:18.426Z,49.30
2022-12-15T11:56:18.583Z,49.60
2022-12-15T11:57:14.419Z,46.10
2022-12-15T11:58:14.420Z,40.30
2022-12-15T11:59:15.443Z,45.40
2022-12-15T12:00:14.412Z,46.00
2022-12-15T12:01:14.672Z,42.90
2022-12-15T12:02:13.803Z,48.20
2022-12-15T12:03:15.512Z,49.20
2022-12-15T12:04:14.437Z,50.30
2022-12-15T12:05:14.426Z,45.70
2022-12-15T12:06:15.443Z,43.40
2022-12-15T12:07:13.710Z,43.70
2022-12-15T12:08:14.441Z,48.10
2022-12-15T12:09:14.434Z,45.20
2022-12-15T12:10:15.452Z,44.40
2022-12-15T12:11:14.595Z,42.60
2022-12-15T12:12:14.438Z,44.30
2022-12-15T12:13:14.435Z,44.80
2022-12-15T12:14:14.424Z,49.30
2022-12-15T12:15:14.522Z,48.30
2022-12-15T12:16:14.952Z,50.20
2022-12-15T12:17:14.452Z,46.10
2022-12-15T12:18:14.437Z,47.00
2022-12-15T12:19:14.462Z,45.30
2022-12-15T12:20:14.433Z,45.30
2022-12-15T12:21:18.225Z,48.10
2022-12-15T12:22:15.165Z,46.40
2022-12-15T12:23:14.440Z,46.90
2022-12-15T12:24:14.434Z,49.70
2022-12-15T12:25:15.599Z,45.90
2022-12-15T12:26:14.444Z,46.10
2022-12-15T12:27:15.481Z,50.30
2022-12-15T12:28:14.437Z,52.10
2022-12-15T12:29:14.451Z,55.00
2022-12-15T12:30:18.609Z,49.60
2022-12-15T12:31:14.425Z,50.30
2022-12-15T12:32:18.382Z,47.40
2022-12-15T12:33:15.427Z,46.60
2022-12-15T12:34:15.086Z,48.00
2022-12-15T12:35:30.908Z,49.60
2022-12-15T12:36:14.426Z,48.60
2022-12-15T12:37:13.947Z,48.80
2022-12-15T12:38:15.253Z,44.90
2022-12-15T12:39:14.022Z,45.50
2022-12-15T12:40:15.787Z,47.10
2022-12-15T12:41:13.943Z,49.50
2022-12-15T12:42:13.939Z,48.70
2022-12-15T13:00:40.696Z,47.20
2022-12-15T13:01:40.714Z,48.30
2022-12-15T13:02:40.032Z,50.20
2022-12-15T13:03:40.503Z,52.10
2022-12-15T13:04:41.522Z,51.30
2022-12-15T13:05:41.369Z,51.80
2022-12-15T13:06:51.520Z,49.80
2022-12-15T13:08:53.972Z,50.60
2022-12-15T13:09:52.481Z,47.50
2022-12-15T13:11:03.459Z,51.10
2022-12-15T13:11:52.493Z,56.80
2022-12-15T13:14:58.219Z,53.70
2022-12-15T13:15:59.372Z,48.10
2022-12-15T13:17:25.041Z,52.30
2022-12-15T13:18:56.852Z,52.70
2022-12-15T13:19:05.451Z,58.50
2022-12-15T13:20:03.727Z,60.50
2022-12-15T13:21:03.736Z,62.80
2022-12-15T13:22:02.706Z,60.90
2022-12-15T13:23:06.801Z,59.10
2022-12-15T13:24:01.748Z,58.30
2022-12-15T13:25:02.704Z,58.10
2022-12-15T13:26:05.414Z,62.00
2022-12-15T13:27:12.753Z,59.60
2022-12-15T13:29:40.305Z,54.10
2022-12-15T13:30:40.289Z,54.30
2022-12-15T13:31:40.372Z,50.70
2022-12-15T13:32:40.312Z,52.30
2022-12-15T13:33:40.274Z,57.00
2022-12-15T13:34:45.866Z,58.00
2022-12-15T13:35:54.133Z,59.40
2022-12-15T13:36:44.361Z,61.00
2022-12-15T13:37:53.138Z,60.50
2022-12-15T13:38:42.124Z,56.60
2022-12-15T13:39:39.593Z,66.10
2022-12-15T13:41:01.334Z,63.60
2022-12-15T13:41:49.907Z,64.10
2022-12-15T13:42:51.336Z,60.40
2022-12-15T13:43:42.345Z,60.60
2022-12-15T13:45:00.653Z,63.10
2022-12-15T13:45:39.546Z,68.00
2022-12-15T13:46:39.621Z,64.50
2022-12-15T13:47:39.480Z,65.60
2022-12-15T13:48:39.677Z,62.70
2022-12-15T13:49:42.056Z,67.20
2022-12-15T13:50:39.498Z,62.90
2022-12-15T13:51:42.829Z,63.10
2022-12-15T15:03:15.361Z,50.00
2022-12-15T15:03:25.217Z,56.00
2022-12-15T15:03:30.258Z,62.70
2022-12-15T15:04:30.275Z,96.50
2022-12-15T15:05:30.411Z,101.00
2022-12-15T15:06:30.231Z,110.60
2022-12-15T15:07:30.293Z,104.20
2022-12-15T15:08:30.675Z,113.60
2022-12-15T15:09:30.337Z,108.70
2022-12-15T15:10:30.193Z,109.30
2022-12-15T15:11:30.256Z,105.90
2022-12-15T15:12:30.156Z,112.70
2022-12-15T15:13:34.586Z,108.50
2022-12-15T15:14:30.178Z,114.30
2022-12-15T15:15:30.287Z,103.10
2022-12-15T15:16:30.909Z,111.40
2022-12-15T15:17:30.307Z,104.80
2022-12-15T15:18:30.459Z,101.10
2022-12-15T15:19:32.307Z,103.00
2022-12-15T15:20:30.078Z,102.30
2022-12-15T15:21:31.848Z,113.20
2022-12-15T15:22:30.049Z,101.30
2022-12-15T15:23:30.345Z,104.40
2022-12-15T15:24:30.042Z,105.20
2022-12-15T15:25:36.143Z,115.70
2022-12-15T15:26:30.049Z,106.10
2022-12-15T15:27:30.281Z,102.90
2022-12-15T15:28:30.660Z,105.10
2022-12-15T15:29:29.998Z,106.20
2022-12-15T15:30:30.184Z,116.70
2022-12-15T15:31:40.020Z,112.40
2022-12-15T15:32:29.971Z,112.70
2022-12-15T15:33:51.195Z,105.40
2022-12-15T15:34:29.941Z,108.60
2022-12-15T15:35:29.969Z,111.50
2022-12-15T15:36:30.358Z,117.50
2022-12-15T15:37:31.853Z,123.90
2022-12-15T15:38:30.202Z,124.70
2022-12-15T15:39:32.189Z,122.30
2022-12-15T15:40:44.851Z,122.80
2022-12-15T15:41:47.402Z,117.80
2022-12-15T15:42:46.992Z,121.80
2022-12-15T15:43:43.890Z,130.10
2022-12-15T15:44:45.388Z,133.10
2022-12-15T15:45:30.434Z,137.10
2022-12-15T15:46:30.513Z,140.60
2022-12-15T15:47:31.447Z,138.00
2022-12-15T15:48:33.425Z,142.20
2022-12-15T15:49:45.400Z,141.90
2022-12-15T15:50:41.484Z,161.90
2022-12-15T15:51:43.831Z,146.70
2022-12-15T15:52:35.934Z,159.70
2022-12-15T15:53:29.900Z,148.60
2022-12-15T15:54:29.979Z,144.80
2022-12-15T15:55:32.317Z,142.90
2022-12-15T15:56:29.738Z,153.80
2022-12-15T15:57:30.875Z,157.50
2022-12-15T15:58:30.174Z,159.10
2022-12-15T15:59:29.967Z,158.40
2022-12-15T16:00:29.716Z,160.70
2022-12-15T16:03:34.862Z,156.30
2022-12-15T16:04:36.345Z,160.70
2022-12-15T16:05:36.669Z,151.80
2022-12-15T16:06:35.413Z,154.10
2022-12-15T16:07:35.595Z,152.30
2022-12-15T16:08:35.900Z,161.00
2022-12-15T16:09:35.579Z,155.40
2022-12-15T16:10:35.378Z,152.30
2022-12-15T16:11:35.584Z,173.50
2022-12-15T16:12:35.364Z,174.60
2022-12-15T16:13:37.323Z,181.50
2022-12-15T16:14:35.330Z,175.80
2022-12-15T16:15:36.578Z,188.60
2022-12-15T16:16:35.380Z,179.10
2022-12-15T16:17:35.472Z,168.90
2022-12-15T16:18:35.749Z,176.20
2022-12-15T16:19:39.652Z,156.20
2022-12-15T16:20:35.448Z,167.90
2022-12-15T16:21:35.295Z,175.30
2022-12-15T16:22:35.522Z,153.90
2022-12-15T16:23:35.235Z,164.50
2022-12-15T16:24:35.546Z,155.30
2022-12-15T16:25:43.797Z,164.40
2022-12-15T16:26:35.218Z,156.80
2022-12-15T16:27:37.442Z,148.70
2022-12-15T16:28:35.586Z,154.20
2022-12-15T16:29:37.466Z,148.90
2022-12-15T16:30:35.175Z,151.70
2022-12-15T16:31:40.896Z,165.10
2022-12-15T16:32:35.160Z,176.60
2022-12-15T16:33:56.260Z,191.80
2022-12-15T16:34:35.328Z,190.60
2022-12-15T16:35:37.395Z,203.20
2022-12-15T16:36:35.134Z,202.20
2022-12-15T16:37:39.517Z,183.80
2022-12-15T16:38:35.567Z,193.00
2022-12-15T16:39:35.233Z,185.70
2022-12-15T16:40:35.055Z,177.50
2022-12-15T16:41:35.187Z,177.40
2022-12-15T16:42:35.034Z,182.50
2022-12-15T16:43:39.122Z,159.30
2022-12-15T16:44:35.083Z,156.00
2022-12-15T16:45:35.225Z,159.60
2022-12-15T16:46:35.251Z,157.90
2022-12-15T16:47:35.007Z,158.70
2022-12-15T16:48:35.907Z,152.00
2022-12-15T16:49:39.978Z,151.90
2022-12-15T16:50:34.970Z,152.20
2022-12-15T16:51:35.152Z,158.50
2022-12-15T16:52:35.000Z,146.90
2022-12-15T16:53:35.069Z,158.80
2022-12-15T16:54:34.958Z,167.70
2022-12-15T16:55:39.664Z,155.20
2022-12-15T16:56:35.082Z,147.60
2022-12-15T16:57:34.934Z,161.00
2022-12-15T16:58:35.328Z,171.30
2022-12-15T16:59:36.089Z,167.20
2022-12-15T17:00:35.121Z,166.80
2022-12-15T17:01:39.864Z,169.80
2022-12-15T17:02:35.033Z,160.60
2022-12-15T17:03:36.254Z,161.50
2022-12-15T17:04:34.831Z,165.30
2022-12-15T17:05:35.993Z,168.80
2022-12-15T17:06:34.807Z,169.70
2022-12-15T17:07:35.111Z,156.60
2022-12-15T17:08:35.183Z,146.80
2022-12-15T17:09:37.707Z,143.20
2022-12-15T17:10:34.763Z,151.90
2022-12-15T17:11:57.007Z,141.00
2022-12-15T17:12:34.773Z,141.70
2022-12-15T17:13:40.621Z,144.90
2022-12-15T17:14:34.742Z,139.40
2022-12-15T17:16:37.241Z,152.10
2022-12-15T17:17:38.040Z,157.20
2022-12-15T17:18:38.143Z,160.20
2022-12-15T17:19:38.623Z,158.20
2022-12-15T17:20:38.074Z,170.90
2022-12-15T17:21:38.029Z,176.00
2022-12-15T17:22:38.126Z,177.20
2022-12-15T17:23:37.990Z,168.00
2022-12-15T17:24:38.151Z,168.30
2022-12-15T17:26:17.990Z,163.70
2022-12-15T17:26:37.953Z,175.10
2022-12-15T17:27:39.049Z,158.10
2022-12-15T17:28:37.977Z,164.60
2022-12-15T17:29:38.040Z,162.20
2022-12-15T17:30:37.919Z,158.60
2022-12-15T17:31:38.147Z,164.10
2022-12-15T17:32:38.067Z,166.30
2022-12-15T17:33:37.916Z,173.50
2022-12-15T17:34:38.073Z,163.70
2022-12-15T17:35:37.850Z,165.30
2022-12-15T17:36:37.878Z,158.10
2022-12-15T17:37:37.895Z,156.40
2022-12-15T17:38:37.922Z,148.00
2022-12-15T17:39:37.806Z,153.70
2022-12-15T17:40:37.904Z,150.30
2022-12-15T17:42:03.243Z,158.60
2022-12-15T17:42:37.775Z,148.00
2022-12-15T17:43:38.281Z,150.10
2022-12-15T17:44:38.809Z,136.50
2022-12-15T17:45:37.742Z,135.20
2022-12-15T17:46:37.897Z,143.00
2022-12-15T17:47:37.718Z,130.70
2022-12-15T17:48:37.939Z,134.10
2022-12-15T17:49:38.958Z,129.80
2022-12-15T17:50:51.748Z,131.30
2022-12-15T17:51:37.675Z,126.70
2022-12-15T17:52:37.699Z,123.40
2022-12-15T17:53:37.700Z,129.50
2022-12-15T17:54:37.704Z,136.50
2022-12-15T17:55:37.630Z,134.40
2022-12-15T17:56:37.642Z,145.10
2022-12-15T17:57:37.613Z,134.40
2022-12-15T17:58:37.620Z,135.70
2022-12-15T17:59:37.625Z,136.30
2022-12-15T18:00:37.604Z,131.10
2022-12-15T18:01:37.691Z,139.10
2022-12-15T18:02:37.703Z,135.90
2022-12-15T18:03:38.237Z,139.00
2022-12-15T18:04:37.568Z,137.10
2022-12-15T18:05:37.542Z,132.60
2022-12-15T18:06:37.545Z,131.20
2022-12-15T18:07:37.510Z,134.20
2022-12-15T18:08:37.515Z,133.10
2022-12-15T18:09:37.489Z,133.90
2022-12-15T18:10:37.514Z,131.50
2022-12-15T18:11:37.476Z,128.00
2022-12-15T18:12:37.499Z,120.80
2022-12-15T18:13:37.956Z,129.20
2022-12-15T18:14:38.449Z,120.20
2022-12-15T18:15:37.472Z,129.80
2022-12-15T18:16:37.543Z,131.80
2022-12-15T18:17:37.459Z,116.60
2022-12-15T18:18:37.411Z,121.00
2022-12-15T18:19:37.394Z,109.80
2022-12-15T18:20:37.413Z,119.40
2022-12-15T18:21:37.388Z,125.90
2022-12-15T18:22:37.940Z,126.50
2022-12-15T18:23:37.373Z,122.30
2022-12-15T18:24:37.352Z,130.20
2022-12-15T18:25:37.369Z,127.70
2022-12-15T18:26:37.353Z,117.90
2022-12-15T18:27:37.319Z,129.50
2022-12-15T18:28:37.316Z,123.70
2022-12-15T18:29:37.288Z,122.90
2022-12-15T18:30:37.297Z,130.60
2022-12-15T18:31:37.363Z,126.60
2022-12-15T18:32:37.291Z,137.30
2022-12-15T18:33:37.259Z,127.80
2022-12-15T18:34:37.281Z,138.20
2022-12-15T18:35:37.236Z,145.30
2022-12-15T18:36:37.255Z,136.80
2022-12-15T18:37:37.223Z,132.30
2022-12-15T18:38:37.207Z,130.20
2022-12-15T18:39:37.194Z,128.60
2022-12-15T18:40:37.204Z,136.10
2022-12-15T18:41:37.207Z,128.80
2022-12-15T18:42:37.201Z,135.20
2022-12-15T18:43:37.193Z,142.00
2022-12-15T18:44:37.151Z,123.30
2022-12-15T18:45:38.524Z,128.70
2022-12-15T18:46:37.192Z,130.40
2022-12-15T18:47:37.119Z,137.80
2022-12-15T18:48:37.127Z,143.30
2022-12-15T18:49:39.926Z,137.70
2022-12-15T18:50:37.098Z,138.70
2022-12-15T18:51:38.018Z,132.70
2022-12-15T18:52:37.087Z,114.50
2022-12-15T18:53:37.050Z,128.20
2022-12-15T18:54:37.051Z,122.20
2022-12-15T18:55:37.051Z,122.40
2022-12-15T18:56:37.037Z,115.10
2022-12-15T18:57:37.471Z,114.10
2022-12-15T18:58:40.826Z,112.50
2022-12-15T18:59:38.535Z,125.80
2022-12-15T19:00:39.657Z,127.30
2022-12-15T19:01:37.140Z,119.40
2022-12-15T19:02:37.148Z,118.80
2022-12-15T19:03:37.400Z,113.90
2022-12-15T19:04:37.536Z,120.70
2022-12-15T19:05:44.436Z,125.80
2022-12-15T19:06:40.521Z,118.10
2022-12-15T19:07:36.906Z,127.60
2022-12-15T19:08:37.453Z,124.40
2022-12-15T19:11:40.048Z,125.60
2022-12-15T19:11:45.076Z,120.90
2022-12-15T19:13:15.341Z,133.90
2022-12-15T19:13:45.044Z,133.20
2022-12-15T19:14:48.627Z,137.20
2022-12-15T19:17:49.099Z,134.60
2022-12-15T19:18:50.114Z,126.70
2022-12-15T19:19:56.722Z,125.60
2022-12-15T19:20:50.095Z,129.50
2022-12-15T19:21:50.056Z,120.80
2022-12-15T19:22:50.065Z,120.90
2022-12-15T19:23:55.689Z,118.10
2022-12-15T19:24:50.031Z,117.40
2022-12-15T19:25:50.034Z,113.90
2022-12-15T19:26:50.032Z,123.00
2022-12-15T19:27:49.990Z,124.80
2022-12-15T19:28:50.669Z,131.80
2022-12-15T19:29:51.745Z,118.80
2022-12-15T19:30:52.217Z,128.50
2022-12-15T19:31:50.044Z,129.10
2022-12-15T19:32:50.031Z,123.40
2022-12-15T19:33:49.953Z,130.50
2022-12-15T19:34:49.951Z,131.90
2022-12-15T19:35:49.964Z,129.00
2022-12-15T19:36:51.712Z,141.90
2022-12-15T19:39:50.491Z,125.30
2022-12-15T19:39:55.495Z,143.60
2022-12-15T19:40:55.542Z,127.60
2022-12-15T19:41:55.494Z,128.00
2022-12-15T19:42:55.785Z,127.20
2022-12-15T19:43:55.454Z,129.00
2022-12-15T19:44:56.119Z,125.30
2022-12-15T19:45:55.488Z,125.80
2022-12-15T19:46:59.236Z,123.70
2022-12-15T19:47:55.422Z,121.00
2022-12-15T19:48:56.233Z,122.40
2022-12-15T19:49:55.387Z,125.20
2022-12-15T19:50:55.391Z,123.40
2022-12-15T19:51:55.415Z,124.00
2022-12-15T19:52:55.374Z,134.20
2022-12-15T19:53:55.370Z,131.10
2022-12-15T19:54:55.326Z,126.60
2022-12-15T19:55:55.333Z,131.60
2022-12-15T19:56:55.330Z,135.70
2022-12-15T19:57:55.315Z,132.90
2022-12-15T19:58:55.652Z,139.30
2022-12-15T19:59:55.322Z,142.60
2022-12-15T20:00:56.248Z,135.80
2022-12-15T20:01:55.542Z,131.60
2022-12-15T20:02:55.554Z,135.30
2022-12-15T20:03:55.693Z,138.60
2022-12-15T20:04:55.304Z,149.50
2022-12-15T20:05:55.227Z,148.10
2022-12-15T20:06:55.228Z,143.00
2022-12-15T20:07:55.215Z,151.80
2022-12-15T20:08:55.223Z,145.80
2022-12-15T20:09:55.224Z,144.30
2022-12-15T20:10:55.194Z,144.10
2022-12-15T20:11:55.169Z,141.50
2022-12-15T20:12:55.176Z,146.90
2022-12-15T20:13:56.630Z,143.50
2022-12-15T20:14:55.642Z,134.90
2022-12-15T20:15:55.138Z,137.90
2022-12-15T20:16:55.160Z,138.90
2022-12-15T20:17:55.131Z,138.40
2022-12-15T20:18:55.123Z,138.50
2022-12-15T20:19:55.196Z,134.40
2022-12-15T20:20:55.814Z,141.90
2022-12-15T20:21:55.088Z,136.60
2022-12-15T20:22:55.106Z,127.60
2022-12-15T20:23:55.625Z,131.30
2022-12-15T20:24:55.664Z,136.10
2022-12-15T20:25:55.291Z,129.00
2022-12-15T20:26:55.028Z,128.80
2022-12-15T20:27:55.025Z,135.50